Time;durP1;ratioP1;P1;durP2;ratioP2;P2;SDS_P1;SDS_P2;PMS_P1;PMS_P2;Temp;Humidity;BMP_temperature;BMP_pressure;BME280_temperature;BME280_humidity;BME280_pressure;Samples;Min_cycle;Max_cycle;Signal;HPM_P1;HPM_P2
2023/01/30 00:01:24;;;;;;;8.68;3.88;;;6.70;99.90;;;;;;5008013;28;20548;-81
2023/01/30 00:03:50;;;;;;;8.70;4.60;;;6.70;99.90;;;;;;5008250;28;20046;-81
2023/01/30 00:06:16;;;;;;;9.68;4.35;;;6.70;99.90;;;;;;5008091;28;20044;-81
2023/01/30 00:08:42;;;;;;;10.25;3.67;;;6.70;99.90;;;;;;5007593;28;20129;-81
2023/01/30 00:11:10;;;;;;;5.28;4.47;;;6.70;99.90;;;;;;5008116;28;20038;-81
2023/01/30 00:13:37;;;;;;;7.65;3.50;;;6.80;99.90;;;;;;5006863;28;20137;-80
2023/01/30 00:16:03;;;;;;;4.07;3.13;;;6.80;99.90;;;;;;5006657;28;20038;-81
2023/01/30 00:18:30;;;;;;;9.50;4.20;;;6.70;99.90;;;;;;5007573;28;20482;-80
2023/01/30 00:20:57;;;;;;;7.85;4.80;;;6.70;99.90;;;;;;5006741;28;20046;-81
2023/01/30 00:23:24;;;;;;;6.65;4.10;;;6.70;99.90;;;;;;5007713;28;20050;-81
2023/01/30 00:25:50;;;;;;;7.82;3.78;;;6.70;99.90;;;;;;5006917;28;20042;-80
2023/01/30 00:28:16;;;;;;;9.57;5.35;;;6.60;99.90;;;;;;5006708;28;20056;-81
2023/01/30 00:30:41;;;;;;;24.15;4.90;;;6.70;99.90;;;;;;5007887;28;20049;-81
2023/01/30 00:33:08;;;;;;;11.52;4.25;;;6.70;99.90;;;;;;5007539;28;20073;-81
2023/01/30 00:35:33;;;;;;;8.50;3.05;;;6.70;99.90;;;;;;5007318;28;20126;-81
2023/01/30 00:38:00;;;;;;;9.43;4.05;;;6.70;99.90;;;;;;5007887;28;20159;-81
2023/01/30 00:40:27;;;;;;;7.95;4.72;;;6.70;99.90;;;;;;5007291;28;20046;-81
2023/01/30 00:48:24;;;;;;;8.73;4.20;;;6.70;99.90;;;;;;5007270;28;20056;-80
2023/01/30 00:50:53;;;;;;;12.02;5.82;;;6.60;99.90;;;;;;5007406;28;20042;-81
2023/01/30 00:53:19;;;;;;;9.27;4.82;;;6.60;99.90;;;;;;5007186;28;20042;-81
2023/01/30 00:55:44;;;;;;;13.20;5.80;;;6.70;99.90;;;;;;5007138;28;20048;-81
2023/01/30 00:58:11;;;;;;;11.77;5.68;;;6.60;99.90;;;;;;5006280;28;20494;-81
2023/01/30 01:00:38;;;;;;;11.32;4.60;;;6.60;99.90;;;;;;5006477;28;20050;-81
2023/01/30 01:03:04;;;;;;;9.20;4.35;;;6.60;99.90;;;;;;5007422;28;20041;-81
2023/01/30 01:05:29;;;;;;;11.13;4.82;;;6.60;99.90;;;;;;5005728;28;20125;-81
2023/01/30 01:07:55;;;;;;;18.38;4.70;;;6.60;99.90;;;;;;5007137;28;20493;-80
2023/01/30 01:10:21;;;;;;;8.85;5.20;;;6.60;99.90;;;;;;5006981;28;20042;-82
2023/01/30 01:12:51;;;;;;;14.88;5.97;;;6.60;99.90;;;;;;5006205;28;20371;-82
2023/01/30 01:15:17;;;;;;;7.32;4.55;;;6.60;99.90;;;;;;5007048;28;20065;-82
2023/01/30 01:18:23;;;;;;;8.93;4.60;;;6.60;99.90;;;;;;5336859;22;20908;-82
2023/01/30 01:20:49;;;;;;;35.10;5.30;;;6.60;99.90;;;;;;4994430;28;20070;-81
2023/01/30 01:23:15;;;;;;;9.07;6.20;;;6.60;99.90;;;;;;5012261;28;20103;-81
2023/01/30 01:25:40;;;;;;;9.13;4.50;;;6.60;99.90;;;;;;5011744;28;20041;-81
2023/01/30 01:28:06;;;;;;;25.52;5.30;;;6.60;99.90;;;;;;5010240;28;20072;-80
2023/01/30 01:30:31;;;;;;;9.43;5.85;;;6.60;99.90;;;;;;5011815;28;20390;-81
2023/01/30 01:32:57;;;;;;;12.05;4.72;;;6.60;99.90;;;;;;5012277;28;20131;-81
2023/01/30 01:35:22;;;;;;;9.18;4.70;;;6.60;99.90;;;;;;5009664;28;20493;-81
2023/01/30 01:37:53;;;;;;;19.90;5.95;;;6.60;99.90;;;;;;5011926;28;20041;-81
2023/01/30 01:43:21;;;;;;;13.25;5.28;;;6.60;99.90;;;;;;5010538;28;20053;-81
2023/01/30 01:45:52;;;;;;;20.77;3.90;;;6.60;99.90;;;;;;5010350;28;20053;-81
2023/01/30 01:48:33;;;;;;;12.45;4.43;;;6.60;99.90;;;;;;5011441;28;20505;-81
2023/01/30 01:51:09;;;;;;;15.00;6.18;;;6.60;99.90;;;;;;5010526;28;20532;-83
2023/01/30 01:54:01;;;;;;;13.02;4.72;;;6.60;99.90;;;;;;5011357;28;20053;-81
2023/01/30 01:56:29;;;;;;;13.27;5.45;;;6.60;99.90;;;;;;5011113;28;20108;-81
2023/01/30 01:59:00;;;;;;;14.45;7.15;;;6.70;99.90;;;;;;4993952;28;20049;-81
2023/01/30 02:01:27;;;;;;;9.38;4.78;;;6.70;99.90;;;;;;5010126;28;20107;-82
2023/01/30 02:03:57;;;;;;;11.80;6.03;;;6.70;99.90;;;;;;5010674;28;20045;-81
2023/01/30 02:06:23;;;;;;;9.20;4.45;;;6.80;99.90;;;;;;5009795;28;20076;-82
2023/01/30 02:08:53;;;;;;;17.02;6.47;;;6.80;99.90;;;;;;5011468;28;20046;-81
2023/01/30 02:11:41;;;;;;;8.88;4.00;;;6.80;99.90;;;;;;5010190;28;20981;-81
2023/01/30 02:14:08;;;;;;;17.23;6.00;;;6.80;99.90;;;;;;5009627;28;20052;-81
2023/01/30 02:16:36;;;;;;;25.58;5.80;;;6.80;99.90;;;;;;4998349;28;20117;-81
2023/01/30 02:19:02;;;;;;;7.68;4.20;;;6.90;99.90;;;;;;5009791;28;20057;-81
2023/01/30 02:21:45;;;;;;;22.90;5.90;;;6.90;99.90;;;;;;5011190;28;20050;-81
2023/01/30 02:24:17;;;;;;;16.08;4.93;;;6.90;99.90;;;;;;5010969;28;20551;-81
2023/01/30 02:27:26;;;;;;;10.07;4.13;;;6.90;99.90;;;;;;5010791;28;20081;-81
2023/01/30 02:30:23;;;;;;;11.38;4.50;;;6.90;99.90;;;;;;5010150;28;20509;-81
2023/01/30 02:33:00;;;;;;;10.27;5.25;;;6.90;99.90;;;;;;5010810;28;20405;-80
2023/01/30 02:36:03;;;;;;;15.35;5.43;;;6.90;99.90;;;;;;5008566;28;20084;-81
2023/01/30 02:38:37;;;;;;;11.65;5.20;;;7.00;99.90;;;;;;4993102;28;20046;-81
2023/01/30 02:41:35;;;;;;;13.70;4.47;;;6.90;99.90;;;;;;5010531;28;20406;-81
2023/01/30 02:44:10;;;;;;;12.15;4.40;;;6.90;99.90;;;;;;5010432;28;20498;-82
2023/01/30 02:46:51;;;;;;;12.48;5.80;;;6.90;99.90;;;;;;5010157;28;20460;-81
2023/01/30 02:49:28;;;;;;;8.93;4.82;;;6.90;99.90;;;;;;4990028;28;20043;-81
2023/01/30 02:51:55;;;;;;;55.22;6.88;;;6.80;99.90;;;;;;5006364;28;20050;-81
2023/01/30 02:54:21;;;;;;;10.95;5.90;;;6.80;99.90;;;;;;5010025;28;20057;-82
2023/01/30 02:56:49;;;;;;;15.07;5.40;;;6.80;99.90;;;;;;5010197;28;20052;-81
2023/01/30 02:59:27;;;;;;;10.10;4.65;;;6.80;99.90;;;;;;5010136;28;20034;-81
2023/01/30 03:02:14;;;;;;;10.27;3.90;;;6.80;99.90;;;;;;5009145;28;20058;-81
2023/01/30 03:04:52;;;;;;;8.80;4.57;;;6.80;99.90;;;;;;5009001;28;20072;-81
2023/01/30 03:07:45;;;;;;;18.95;5.15;;;6.70;99.90;;;;;;5008879;28;20140;-81
2023/01/30 03:10:37;;;;;;;7.03;3.53;;;6.70;99.90;;;;;;4992441;28;20078;-81
2023/01/30 03:13:41;;;;;;;6.43;3.63;;;6.80;99.90;;;;;;5008893;28;20081;-82
2023/01/30 03:16:17;;;;;;;8.73;4.03;;;6.70;99.90;;;;;;5002825;28;20504;-81
2023/01/30 03:18:43;;;;;;;7.60;3.30;;;6.70;99.90;;;;;;5008633;28;20410;-81
2023/01/30 03:21:10;;;;;;;11.60;5.43;;;6.70;99.90;;;;;;5009710;28;20392;-81
2023/01/30 03:23:36;;;;;;;19.70;3.10;;;6.70;99.90;;;;;;5009550;28;20061;-81
2023/01/30 03:26:04;;;;;;;9.85;3.95;;;6.70;99.90;;;;;;5009867;28;20046;-82
2023/01/30 03:28:31;;;;;;;8.88;3.90;;;6.70;99.90;;;;;;5009775;28;20042;-81
2023/01/30 03:30:57;;;;;;;20.90;4.30;;;6.70;99.90;;;;;;5009737;28;20532;-82
2023/01/30 03:33:23;;;;;;;19.00;4.68;;;6.80;99.90;;;;;;5008607;28;20117;-81
2023/01/30 03:35:50;;;;;;;10.85;5.25;;;6.70;99.90;;;;;;5009583;28;20458;-82
2023/01/30 03:38:17;;;;;;;13.77;4.93;;;6.70;99.90;;;;;;5009842;28;20034;-82
2023/01/30 03:40:42;;;;;;;28.92;5.70;;;6.70;99.90;;;;;;5009134;28;20060;-82
2023/01/30 03:43:08;;;;;;;9.15;4.20;;;6.70;99.90;;;;;;5009644;28;20409;-81
2023/01/30 03:45:34;;;;;;;17.48;5.07;;;6.70;99.90;;;;;;5007662;28;20073;-82
2023/01/30 03:47:59;;;;;;;10.75;3.70;;;6.70;99.90;;;;;;5009685;28;20041;-81
2023/01/30 03:50:25;;;;;;;17.80;4.60;;;6.70;99.90;;;;;;5008044;28;20123;-81
2023/01/30 03:52:51;;;;;;;19.75;5.70;;;6.70;99.90;;;;;;5008003;28;20045;-81
2023/01/30 03:55:16;;;;;;;14.07;5.95;;;6.70;99.90;;;;;;5007935;28;20038;-81
2023/01/30 03:57:42;;;;;;;12.38;4.90;;;6.60;99.90;;;;;;5008704;28;20045;-81
2023/01/30 04:00:08;;;;;;;14.77;6.05;;;6.60;99.90;;;;;;5007715;28;20045;-81
2023/01/30 04:02:34;;;;;;;7.30;3.63;;;6.60;99.90;;;;;;5008906;28;20046;-81
2023/01/30 04:05:00;;;;;;;9.52;3.42;;;6.50;99.90;;;;;;5007687;28;20375;-81
2023/01/30 04:07:28;;;;;;;11.30;4.40;;;6.50;99.90;;;;;;5007723;28;20069;-82
2023/01/30 04:09:54;;;;;;;18.08;4.10;;;6.50;99.90;;;;;;5007979;28;20129;-82
2023/01/30 04:12:19;;;;;;;10.13;4.88;;;6.40;99.90;;;;;;5007592;28;20120;-81
2023/01/30 04:14:45;;;;;;;12.80;5.40;;;6.40;99.90;;;;;;5007642;28;20089;-81
2023/01/30 04:17:10;;;;;;;10.85;4.45;;;6.40;99.90;;;;;;4991293;28;20042;-81
2023/01/30 04:19:36;;;;;;;17.42;5.70;;;6.40;99.90;;;;;;4987892;28;20049;-81
2023/01/30 04:22:01;;;;;;;12.27;5.47;;;6.40;99.90;;;;;;4988442;28;20085;-81
2023/01/30 04:24:27;;;;;;;7.25;3.90;;;6.40;99.90;;;;;;4989231;28;20038;-81
2023/01/30 04:26:53;;;;;;;8.35;4.28;;;6.40;99.90;;;;;;4989247;28;20121;-80
2023/01/30 04:29:18;;;;;;;8.63;3.60;;;6.40;99.90;;;;;;4988096;28;20054;-81
2023/01/30 04:31:44;;;;;;;8.40;5.97;;;6.40;99.90;;;;;;4988930;28;20129;-81
2023/01/30 04:34:09;;;;;;;11.20;5.07;;;6.30;99.90;;;;;;4987155;28;20051;-81
2023/01/30 04:36:35;;;;;;;7.85;4.53;;;6.30;99.90;;;;;;4987861;28;20050;-81
2023/01/30 04:39:01;;;;;;;22.85;4.93;;;6.30;99.90;;;;;;4988079;28;20057;-81
2023/01/30 04:41:27;;;;;;;9.32;3.60;;;6.30;99.90;;;;;;4993890;28;20037;-81
2023/01/30 04:43:53;;;;;;;15.85;5.55;;;6.30;99.90;;;;;;5008742;28;20042;-81
2023/01/30 04:46:18;;;;;;;21.55;7.15;;;6.20;99.90;;;;;;5008432;28;20054;-81
2023/01/30 04:48:44;;;;;;;9.63;3.95;;;6.30;99.90;;;;;;5005887;28;20041;-81
2023/01/30 04:51:09;;;;;;;17.08;5.65;;;6.30;99.90;;;;;;5008619;28;20398;-81
2023/01/30 04:53:35;;;;;;;19.83;7.53;;;6.30;99.90;;;;;;5008051;28;20053;-82
2023/01/30 04:56:00;;;;;;;13.18;4.20;;;6.20;99.90;;;;;;5009010;28;20041;-81
2023/01/30 04:58:26;;;;;;;23.25;4.63;;;6.30;99.90;;;;;;5008143;28;20132;-81
2023/01/30 05:00:51;;;;;;;14.30;5.65;;;6.20;99.90;;;;;;5008099;28;20046;-81
2023/01/30 05:03:18;;;;;;;9.48;5.30;;;6.20;99.90;;;;;;5007327;28;20064;-82
2023/01/30 05:05:47;;;;;;;10.30;5.03;;;6.20;99.90;;;;;;5006832;28;20042;-81
2023/01/30 05:08:14;;;;;;;13.48;4.93;;;6.10;99.90;;;;;;5008260;28;20112;-81
2023/01/30 05:10:40;;;;;;;8.50;4.50;;;6.10;99.90;;;;;;5008125;28;20054;-81
2023/01/30 05:13:06;;;;;;;13.40;5.30;;;6.00;99.90;;;;;;5008327;28;20096;-82
2023/01/30 05:15:32;;;;;;;16.40;5.90;;;6.00;99.90;;;;;;5008360;28;20041;-82
2023/01/30 05:17:58;;;;;;;18.90;6.25;;;6.00;99.90;;;;;;5006887;28;20375;-81
2023/01/30 05:20:24;;;;;;;14.70;5.50;;;6.00;99.90;;;;;;5006383;28;20064;-82
2023/01/30 05:22:50;;;;;;;22.20;5.65;;;6.00;99.90;;;;;;5008349;28;20534;-81
2023/01/30 05:25:15;;;;;;;14.13;4.28;;;6.00;99.90;;;;;;5007075;28;20088;-81
2023/01/30 05:27:41;;;;;;;17.85;6.22;;;6.00;99.90;;;;;;5007709;28;20379;-82
2023/01/30 05:30:07;;;;;;;30.58;5.38;;;6.00;99.90;;;;;;4995491;28;20129;-81
2023/01/30 05:32:33;;;;;;;29.88;6.05;;;6.00;99.90;;;;;;4999960;28;20050;-81
2023/01/30 05:34:59;;;;;;;16.30;4.20;;;5.90;99.90;;;;;;5006045;28;20405;-81
2023/01/30 05:37:25;;;;;;;8.82;4.43;;;5.90;99.90;;;;;;5007708;28;20095;-82
2023/01/30 05:39:50;;;;;;;10.05;4.22;;;5.90;99.90;;;;;;5007826;28;20045;-81
2023/01/30 05:42:16;;;;;;;8.90;3.78;;;5.90;99.90;;;;;;5006992;28;20046;-81
2023/01/30 05:44:42;;;;;;;11.52;4.18;;;5.90;99.90;;;;;;5007793;28;20038;-81
2023/01/30 05:47:07;;;;;;;6.80;3.47;;;5.90;99.90;;;;;;5006593;28;20506;-82
2023/01/30 05:49:33;;;;;;;15.52;4.97;;;5.90;99.90;;;;;;5001166;28;20042;-81
2023/01/30 05:51:58;;;;;;;21.80;5.22;;;6.00;99.90;;;;;;5007876;28;20038;-81
2023/01/30 05:54:24;;;;;;;22.58;5.03;;;6.00;99.90;;;;;;5007520;28;20449;-82
2023/01/30 05:56:49;;;;;;;12.98;5.28;;;6.00;99.90;;;;;;5007963;28;20051;-81
2023/01/30 05:59:17;;;;;;;10.32;5.03;;;6.00;99.90;;;;;;5006428;28;20084;-81
2023/01/30 06:01:43;;;;;;;16.42;5.70;;;6.10;99.90;;;;;;5007523;28;20140;-82
2023/01/30 06:04:09;;;;;;;20.52;5.30;;;6.00;99.90;;;;;;5004441;28;20112;-82
2023/01/30 06:06:35;;;;;;;11.00;4.50;;;6.10;99.90;;;;;;5010479;28;20077;-82
2023/01/30 06:09:00;;;;;;;14.18;3.80;;;6.10;99.90;;;;;;5011191;28;20053;-82
2023/01/30 06:11:26;;;;;;;13.82;5.82;;;6.10;99.90;;;;;;4999898;28;20046;-82
2023/01/30 06:13:52;;;;;;;21.75;4.20;;;6.00;99.90;;;;;;4991502;28;20125;-81
2023/01/30 06:16:18;;;;;;;13.52;5.10;;;6.10;99.90;;;;;;5000133;28;20096;-82
2023/01/30 06:18:47;;;;;;;29.05;5.10;;;6.10;99.90;;;;;;4994824;28;20410;-82
2023/01/30 06:21:14;;;;;;;9.20;5.28;;;6.10;99.90;;;;;;4988597;28;20066;-82
2023/01/30 06:23:40;;;;;;;11.63;4.60;;;6.10;99.90;;;;;;4997053;28;20445;-83
2023/01/30 06:26:06;;;;;;;6.65;3.10;;;6.10;99.90;;;;;;5004464;28;20038;-81
2023/01/30 06:28:31;;;;;;;17.13;4.82;;;6.10;99.90;;;;;;4996002;28;20050;-81
2023/01/30 06:30:57;;;;;;;16.67;6.45;;;6.10;99.90;;;;;;5006420;28;20477;-82
2023/01/30 06:33:23;;;;;;;16.95;6.60;;;6.10;99.90;;;;;;5003133;28;20516;-81
2023/01/30 06:35:50;;;;;;;17.80;5.28;;;6.10;99.90;;;;;;5007234;28;20038;-81
2023/01/30 06:38:16;;;;;;;20.52;6.85;;;6.10;99.90;;;;;;5004629;28;20424;-80
2023/01/30 06:40:44;;;;;;;30.48;6.82;;;6.00;99.90;;;;;;5000392;28;20042;-83
2023/01/30 06:43:10;;;;;;;15.73;5.85;;;6.00;99.90;;;;;;5010435;28;20137;-81
2023/01/30 06:45:35;;;;;;;14.73;5.40;;;6.00;99.90;;;;;;5007457;28;20485;-81
2023/01/30 06:48:01;;;;;;;26.75;4.40;;;6.00;99.90;;;;;;5008369;28;20120;-82
2023/01/30 06:50:28;;;;;;;17.20;6.78;;;6.00;99.90;;;;;;5005935;28;20050;-82
2023/01/30 06:52:54;;;;;;;8.70;5.53;;;6.00;99.90;;;;;;5021632;28;20054;-80
2023/01/30 06:55:23;;;;;;;15.95;4.93;;;6.00;99.90;;;;;;5008872;28;20049;-79
2023/01/30 06:57:49;;;;;;;16.08;7.45;;;6.00;99.90;;;;;;5007251;28;20042;-78
2023/01/30 07:00:17;;;;;;;26.42;7.13;;;6.00;99.90;;;;;;5009435;28;20046;-79
2023/01/30 07:02:43;;;;;;;10.68;4.95;;;6.00;99.90;;;;;;5007625;28;20049;-79
2023/01/30 07:05:09;;;;;;;8.00;3.60;;;6.10;99.90;;;;;;5009216;28;20413;-78
2023/01/30 07:07:35;;;;;;;22.83;5.68;;;6.00;99.90;;;;;;5009906;28;20033;-78
2023/01/30 07:10:02;;;;;;;9.18;4.30;;;6.00;99.90;;;;;;5009763;28;20128;-79
2023/01/30 07:12:27;;;;;;;11.40;5.18;;;6.00;99.90;;;;;;5008293;28;20045;-78
2023/01/30 07:14:54;;;;;;;14.07;4.07;;;6.10;99.90;;;;;;5008672;28;20042;-78
2023/01/30 07:17:20;;;;;;;19.35;3.75;;;6.10;99.90;;;;;;5009209;28;20387;-78
2023/01/30 07:19:46;;;;;;;9.68;4.80;;;6.00;99.90;;;;;;5007463;28;20058;-78
2023/01/30 07:22:12;;;;;;;13.68;5.28;;;6.00;99.90;;;;;;5009250;28;20398;-78
2023/01/30 07:24:38;;;;;;;18.95;4.25;;;6.00;99.90;;;;;;5009660;28;20038;-78
2023/01/30 07:27:07;;;;;;;16.35;4.43;;;6.00;99.90;;;;;;5008679;28;20061;-78
2023/01/30 07:29:34;;;;;;;20.02;6.20;;;6.00;99.90;;;;;;5007538;28;20038;-78
2023/01/30 07:31:59;;;;;;;14.52;4.65;;;6.00;99.90;;;;;;5004537;28;20505;-78
2023/01/30 07:34:25;;;;;;;11.93;4.15;;;6.00;99.90;;;;;;4987321;28;20050;-79
2023/01/30 07:36:51;;;;;;;17.42;4.40;;;6.00;99.90;;;;;;4992917;28;20068;-78
2023/01/30 07:39:16;;;;;;;11.93;5.93;;;6.00;99.90;;;;;;5007697;28;20514;-78
2023/01/30 07:41:42;;;;;;;11.48;5.85;;;6.10;99.90;;;;;;5006944;28;20042;-78
2023/01/30 07:44:08;;;;;;;26.08;4.93;;;6.10;99.90;;;;;;5008201;28;20398;-78
2023/01/30 07:46:34;;;;;;;15.05;5.20;;;6.10;99.90;;;;;;5006698;28;20041;-78
2023/01/30 07:49:04;;;;;;;23.23;5.07;;;6.10;99.90;;;;;;5007350;28;20153;-79
2023/01/30 07:51:29;;;;;;;16.33;5.13;;;6.10;99.90;;;;;;5006606;28;20038;-78
2023/01/30 07:53:55;;;;;;;28.40;6.13;;;6.10;99.90;;;;;;5007042;28;20091;-78
2023/01/30 07:56:21;;;;;;;33.33;6.40;;;6.10;99.90;;;;;;5007772;28;20038;-79
2023/01/30 07:58:47;;;;;;;12.27;5.45;;;6.10;99.90;;;;;;5007174;28;20042;-78
2023/01/30 08:01:13;;;;;;;21.55;4.82;;;6.10;99.90;;;;;;5006786;28;20497;-78
2023/01/30 08:03:39;;;;;;;9.65;4.30;;;6.10;99.90;;;;;;5007107;28;20041;-78
2023/01/30 08:06:05;;;;;;;15.10;5.53;;;6.20;99.90;;;;;;5007473;28;20055;-78
2023/01/30 08:08:30;;;;;;;19.95;4.85;;;6.20;99.90;;;;;;5007121;28;20053;-78
2023/01/30 08:10:56;;;;;;;10.63;4.45;;;6.20;99.90;;;;;;5007750;28;20056;-78
2023/01/30 08:13:21;;;;;;;19.77;5.78;;;6.10;99.90;;;;;;5006744;28;20092;-78
2023/01/30 08:15:47;;;;;;;17.55;5.55;;;6.10;99.90;;;;;;5001383;28;20053;-78
2023/01/30 08:18:13;;;;;;;13.00;6.35;;;6.20;99.90;;;;;;4986384;28;20121;-77
2023/01/30 08:20:38;;;;;;;19.63;7.82;;;6.20;99.90;;;;;;4987577;28;20465;-77
2023/01/30 08:23:04;;;;;;;34.40;7.70;;;6.20;99.90;;;;;;5003252;28;20050;-78
2023/01/30 08:25:30;;;;;;;19.13;6.57;;;6.20;99.90;;;;;;5006990;28;20042;-78
2023/01/30 08:27:59;;;;;;;13.45;4.65;;;6.20;99.90;;;;;;5006982;28;20030;-78
2023/01/30 08:30:24;;;;;;;26.58;5.35;;;6.20;99.90;;;;;;5007347;28;20577;-78
2023/01/30 08:32:50;;;;;;;13.90;4.82;;;6.30;99.90;;;;;;5006764;28;20132;-78
2023/01/30 08:35:15;;;;;;;20.38;5.78;;;6.30;99.90;;;;;;5005936;28;20053;-79
2023/01/30 08:37:42;;;;;;;11.98;4.25;;;6.30;99.90;;;;;;5005323;28;20103;-78
2023/01/30 08:40:08;;;;;;;13.02;4.70;;;6.30;99.90;;;;;;5007199;28;20045;-77
2023/01/30 08:42:34;;;;;;;5.20;3.58;;;6.30;99.90;;;;;;5006012;28;20136;-77
2023/01/30 08:45:00;;;;;;;15.75;5.70;;;6.40;99.90;;;;;;5007175;28;20121;-78
2023/01/30 08:47:25;;;;;;;10.70;3.97;;;6.30;99.90;;;;;;5004694;28;20048;-78
2023/01/30 08:49:51;;;;;;;11.32;5.05;;;6.40;99.90;;;;;;5003643;28;20042;-78
2023/01/30 08:52:18;;;;;;;9.57;6.72;;;6.40;99.90;;;;;;5003179;28;20069;-78
2023/01/30 08:54:44;;;;;;;13.18;4.82;;;6.40;99.90;;;;;;4986950;28;20045;-77
2023/01/30 08:57:09;;;;;;;20.05;5.18;;;6.40;99.90;;;;;;4998977;28;20046;-78
2023/01/30 08:59:35;;;;;;;15.80;5.38;;;6.50;99.90;;;;;;4999203;28;20503;-78
2023/01/30 09:02:01;;;;;;;28.20;5.15;;;6.40;99.90;;;;;;4996395;28;20042;-78
2023/01/30 09:04:29;;;;;;;6.88;3.67;;;6.50;99.90;;;;;;4987659;28;20045;-78
2023/01/30 09:06:54;;;;;;;33.40;6.22;;;6.50;99.90;;;;;;4973723;28;20085;-78
2023/01/30 09:09:20;;;;;;;12.18;5.68;;;6.50;99.90;;;;;;4996032;28;20035;-78
2023/01/30 09:11:47;;;;;;;13.88;5.32;;;6.60;99.90;;;;;;4992813;28;20042;-78
2023/01/30 09:14:13;;;;;;;8.85;3.65;;;6.60;99.90;;;;;;5002574;28;20081;-78
2023/01/30 09:16:39;;;;;;;30.95;8.57;;;6.60;99.90;;;;;;4994238;28;20038;-78
2023/01/30 09:19:04;;;;;;;19.73;5.70;;;6.60;99.90;;;;;;4999843;28;20065;-77
2023/01/30 09:21:31;;;;;;;11.02;5.15;;;6.60;99.90;;;;;;4994014;28;20371;-77
2023/01/30 09:23:56;;;;;;;19.85;7.95;;;6.60;99.90;;;;;;5004990;28;20164;-78
2023/01/30 09:26:22;;;;;;;14.73;6.60;;;6.60;99.90;;;;;;4999221;28;20042;-78
2023/01/30 09:28:48;;;;;;;20.48;7.93;;;6.60;99.90;;;;;;5007308;28;20214;-78
2023/01/30 09:31:13;;;;;;;22.60;5.30;;;6.60;99.90;;;;;;5007665;28;20093;-77
2023/01/30 09:33:39;;;;;;;26.35;6.32;;;6.60;99.90;;;;;;5006190;28;20092;-77
2023/01/30 09:36:05;;;;;;;22.45;3.63;;;6.60;99.90;;;;;;5006437;28;20042;-77
2023/01/30 09:38:31;;;;;;;15.40;5.85;;;6.70;99.90;;;;;;5006080;28;20486;-78
2023/01/30 09:40:59;;;;;;;13.48;3.70;;;6.70;99.90;;;;;;5009705;28;20483;-78
2023/01/30 09:43:36;;;;;;;9.65;4.47;;;6.70;99.90;;;;;;5008152;28;20052;-77
2023/01/30 09:46:08;;;;;;;12.57;4.50;;;6.70;99.90;;;;;;4991472;28;20531;-77
2023/01/30 09:49:00;;;;;;;14.93;5.07;;;6.70;99.90;;;;;;5001052;28;20496;-77
2023/01/30 09:51:35;;;;;;;38.70;7.15;;;6.70;99.90;;;;;;5005792;28;20049;-77
2023/01/30 09:54:20;;;;;;;19.65;4.50;;;6.80;99.90;;;;;;5004053;28;20449;-78
2023/01/30 09:56:53;;;;;;;14.40;6.90;;;6.80;99.90;;;;;;5006540;28;20042;-78
2023/01/30 09:59:27;;;;;;;20.10;6.28;;;6.80;99.90;;;;;;5008915;28;20046;-79
2023/01/30 10:02:08;;;;;;;18.73;6.13;;;6.90;99.90;;;;;;5000480;28;20061;-78
2023/01/30 10:04:38;;;;;;;6.75;3.75;;;7.00;99.90;;;;;;4988351;28;20049;-78
2023/01/30 10:07:22;;;;;;;11.30;6.03;;;6.90;99.90;;;;;;4990661;28;20049;-75
2023/01/30 10:10:09;;;;;;;15.35;4.20;;;7.10;99.90;;;;;;4973393;28;20137;-76
2023/01/30 10:13:01;;;;;;;22.67;5.45;;;7.10;99.90;;;;;;4989166;28;20058;-76
2023/01/30 10:15:43;;;;;;;22.25;6.50;;;7.10;99.90;;;;;;4993409;28;20042;-75
2023/01/30 10:18:11;;;;;;;10.70;5.18;;;7.10;99.90;;;;;;5000974;28;20445;-76
2023/01/30 10:21:01;;;;;;;20.92;5.47;;;7.10;99.90;;;;;;4993446;28;20054;-76
2023/01/30 10:23:39;;;;;;;17.48;4.78;;;7.20;99.90;;;;;;5008902;28;20092;-76
2023/01/30 10:26:13;;;;;;;11.73;5.47;;;7.20;99.90;;;;;;5009543;28;20050;-78
2023/01/30 10:28:57;;;;;;;16.15;5.57;;;7.20;99.90;;;;;;4991981;28;20449;-77
2023/01/30 10:31:27;;;;;;;9.27;5.38;;;7.30;99.90;;;;;;5006191;28;20046;-78
2023/01/30 10:34:21;;;;;;;16.38;6.32;;;7.30;99.90;;;;;;5000071;28;20061;-78
2023/01/30 10:37:04;;;;;;;11.90;4.32;;;7.30;99.90;;;;;;4994589;28;20050;-76
2023/01/30 10:39:35;;;;;;;;;;;7.20;99.90;;;;;;4994978;28;20057;-76
2023/01/30 10:42:10;;;;;;;8.23;2.90;;;7.10;99.90;;;;;;5009211;28;19929;-78
2023/01/30 10:44:38;;;;;;;2.35;1.98;;;7.00;99.90;;;;;;5008559;28;20042;-77
2023/01/30 10:47:10;;;;;;;4.45;1.60;;;6.80;99.90;;;;;;5008009;28;20042;-77
2023/01/30 10:49:38;;;;;;;2.13;1.17;;;6.70;99.90;;;;;;5009266;28;20057;-78
2023/01/30 10:52:36;;;;;;;2.92;1.63;;;6.70;99.90;;;;;;5007894;28;20046;-75
2023/01/30 10:55:13;;;;;;;7.57;3.40;;;6.70;99.90;;;;;;5002594;28;20054;-77
2023/01/30 10:57:49;;;;;;;9.70;2.97;;;6.70;99.90;;;;;;4999837;28;20066;-76
2023/01/30 11:00:31;;;;;;;5.72;2.70;;;6.60;99.90;;;;;;4999273;28;20046;-77
2023/01/30 11:03:11;;;;;;;6.75;3.95;;;6.70;99.90;;;;;;5000615;28;21077;-77
2023/01/30 11:05:50;;;;;;;7.30;3.42;;;6.70;99.90;;;;;;5014696;28;20046;-79
2023/01/30 11:08:20;;;;;;;9.15;3.80;;;6.70;99.90;;;;;;5007118;28;20054;-75
2023/01/30 11:10:47;;;;;;;15.10;6.80;;;6.80;99.90;;;;;;5003124;28;20039;-77
2023/01/30 11:13:15;;;;;;;8.57;5.00;;;6.90;99.90;;;;;;4993997;28;20052;-75
2023/01/30 11:15:43;;;;;;;26.48;6.13;;;7.00;99.90;;;;;;5004501;28;20501;-80
2023/01/30 11:18:09;;;;;;;9.25;4.53;;;7.10;99.90;;;;;;5005637;28;20557;-79
2023/01/30 11:20:44;;;;;;;7.63;3.15;;;7.20;99.90;;;;;;5007738;28;20142;-76
2023/01/30 11:23:34;;;;;;;5.75;1.92;;;7.10;99.90;;;;;;5008663;28;20049;-78
2023/01/30 11:26:01;;;;;;;5.85;1.85;;;7.00;99.90;;;;;;5008512;28;20088;-77
2023/01/30 11:28:27;;;;;;;8.63;2.50;;;6.80;99.90;;;;;;5007207;28;20092;-77
2023/01/30 11:31:00;;;;;;;7.15;2.67;;;6.70;99.90;;;;;;5007918;28;20050;-77
2023/01/30 11:33:37;;;;;;;7.65;3.97;;;6.50;99.90;;;;;;5007116;28;20100;-77
2023/01/30 11:36:23;;;;;;;5.55;3.40;;;6.40;99.90;;;;;;5007790;28;20049;-77
2023/01/30 11:39:01;;;;;;;5.57;3.22;;;6.30;99.90;;;;;;5008374;28;20425;-79
2023/01/30 11:41:27;;;;;;;9.63;2.78;;;6.30;99.90;;;;;;5007781;28;20100;-78
2023/01/30 11:44:03;;;;;;;6.30;2.38;;;6.30;99.90;;;;;;5008260;28;20038;-82
2023/01/30 11:46:33;;;;;;;12.45;2.63;;;6.30;99.90;;;;;;4990875;28;20426;-78
2023/01/30 11:49:09;;;;;;;13.88;4.82;;;6.30;99.90;;;;;;5005801;28;20088;-78
2023/01/30 11:51:36;;;;;;;11.18;4.78;;;6.30;99.90;;;;;;4993729;28;20072;-75
2023/01/30 11:54:12;;;;;;;9.43;5.22;;;6.40;99.90;;;;;;5007277;28;20099;-74
2023/01/30 11:56:44;;;;;;;26.63;6.15;;;6.50;99.90;;;;;;4987720;28;20498;-76
2023/01/30 11:59:22;;;;;;;13.75;5.50;;;6.50;99.90;;;;;;5001530;28;20038;-75
2023/01/30 12:01:48;;;;;;;9.90;3.72;;;6.50;99.90;;;;;;5006774;28;20116;-76
2023/01/30 12:04:14;;;;;;;14.40;4.28;;;6.60;99.90;;;;;;5006086;28;20114;-78
2023/01/30 12:06:41;;;;;;;14.20;5.13;;;6.60;99.90;;;;;;5006654;28;20565;-78
2023/01/30 12:09:35;;;;;;;7.82;3.83;;;6.70;99.90;;;;;;5003297;28;20116;-78
2023/01/30 12:12:02;;;;;;;5.70;2.78;;;6.70;99.90;;;;;;5003272;28;20045;-77
2023/01/30 12:14:38;;;;;;;6.00;3.50;;;6.70;99.90;;;;;;4990218;28;20038;-77
2023/01/30 12:17:25;;;;;;;5.47;3.58;;;6.70;99.90;;;;;;5003728;28;20129;-78
2023/01/30 12:20:11;;;;;;;7.35;2.92;;;6.70;99.90;;;;;;5007131;28;20054;-79
2023/01/30 12:23:04;;;;;;;22.73;3.85;;;6.70;99.90;;;;;;5000404;28;20057;-78
2023/01/30 12:25:42;;;;;;;32.85;4.28;;;6.80;99.90;;;;;;5006711;28;20040;-79
2023/01/30 12:28:26;;;;;;;6.72;2.33;;;6.70;99.90;;;;;;5007504;28;20057;-77
2023/01/30 12:30:56;;;;;;;7.45;2.35;;;6.80;99.90;;;;;;5007445;28;20042;-78
2023/01/30 12:33:27;;;;;;;7.53;2.97;;;6.70;99.90;;;;;;5006171;28;20061;-79
2023/01/30 12:36:17;;;;;;;17.48;3.38;;;6.80;99.90;;;;;;5007431;28;20060;-78
2023/01/30 12:39:03;;;;;;;10.63;4.47;;;6.80;99.90;;;;;;5007314;28;20067;-77
2023/01/30 12:41:37;;;;;;;7.40;3.75;;;6.80;99.90;;;;;;4999952;28;20082;-76
2023/01/30 12:44:36;;;;;;;21.15;4.13;;;6.90;99.90;;;;;;4986558;28;20043;-78
2023/01/30 12:47:40;;;;;;;22.83;4.38;;;6.90;99.90;;;;;;5004903;28;20052;-78
2023/01/30 12:50:05;;;;;;;12.75;4.55;;;6.90;99.90;;;;;;4954929;28;20061;-77
2023/01/30 12:52:40;;;;;;;25.55;5.18;;;6.90;99.90;;;;;;5004862;28;20498;-76
2023/01/30 12:55:18;;;;;;;11.43;4.43;;;7.00;99.90;;;;;;5007111;28;20046;-76
2023/01/30 12:58:08;;;;;;;23.35;5.68;;;7.00;99.90;;;;;;5006457;28;20466;-76
2023/01/30 13:00:53;;;;;;;9.35;3.83;;;7.00;99.90;;;;;;5006813;28;20416;-75
2023/01/30 13:03:29;;;;;;;22.23;5.72;;;7.00;99.90;;;;;;4996241;28;20082;-76
2023/01/30 13:06:22;;;;;;;11.05;6.63;;;7.00;99.90;;;;;;5004054;28;20069;-76
2023/01/30 13:08:51;;;;;;;;;;;7.00;99.90;;;;;;5006413;28;20482;-76
2023/01/30 13:11:39;;;;;;;18.35;6.30;;;7.10;99.90;;;;;;5007464;28;19925;-77
2023/01/30 13:14:20;;;;;;;16.92;5.65;;;7.10;99.90;;;;;;4998159;28;20089;-77
2023/01/30 13:17:03;;;;;;;14.48;4.65;;;7.10;99.90;;;;;;5003072;28;20442;-77